sensor_id;sensor_type;location;lat;lon;timestamp;temperature;humidity
2054;DHT22;1032;52.542;13.440;2022-12-29T00:01:38;9.30;99.90
2054;DHT22;1032;52.542;13.440;2022-12-29T00:04:05;9.20;99.90
2054;DHT22;1032;52.542;13.440;2022-12-29T00:06:33;8.70;99.90
2054;DHT22;1032;52.542;13.440;2022-12-29T00:08:59;8.60;99.90
2054;DHT22;1032;52.542;13.440;2022-12-29T00:11:27;9.80;99.90
2054;DHT22;1032;52.542;13.440;2022-12-29T00:13:54;9.80;99.90
2054;DHT22;1032;52.542;13.440;2022-12-29T00:16:41;9.20;99.90
2054;DHT22;1032;52.542;13.440;2022-12-29T00:19:08;9.20;99.90
2054;DHT22;1032;52.542;13.440;2022-12-29T00:21:57;9.20;99.90
2054;DHT22;1032;52.542;13.440;2022-12-29T00:24:41;9.20;99.90
2054;DHT22;1032;52.542;13.440;2022-12-29T00:27:26;9.20;99.90
2054;DHT22;1032;52.542;13.440;2022-12-29T00:30:12;9.00;99.90
2054;DHT22;1032;52.542;13.440;2022-12-29T00:32:57;9.10;99.90
2054;DHT22;1032;52.542;13.440;2022-12-29T00:35:45;9.10;99.90
2054;DHT22;1032;52.542;13.440;2022-12-29T00:38:13;9.30;99.90
2054;DHT22;1032;52.542;13.440;2022-12-29T00:40:58;9.10;99.90
2054;DHT22;1032;52.542;13.440;2022-12-29T00:43:42;8.80;99.90
2054;DHT22;1032;52.542;13.440;2022-12-29T00:46:26;9.10;99.90
2054;DHT22;1032;52.542;13.440;2022-12-29T00:48:54;9.20;99.90
2054;DHT22;1032;52.542;13.440;2022-12-29T00:51:47;9.40;99.90
2054;DHT22;1032;52.542;13.440;2022-12-29T00:54:15;9.20;99.90
2054;DHT22;1032;52.542;13.440;2022-12-29T00:56:42;9.10;99.90
2054;DHT22;1032;52.542;13.440;2022-12-29T00:59:10;9.90;99.90
2054;DHT22;1032;52.542;13.440;2022-12-29T01:01:37;9.10;99.90
2054;DHT22;1032;52.542;13.440;2022-12-29T01:04:04;9.20;99.90
2054;DHT22;1032;52.542;13.440;2022-12-29T01:06:31;9.50;99.90
2054;DHT22;1032;52.542;13.440;2022-12-29T01:08:58;9.20;99.90
2054;DHT22;1032;52.542;13.440;2022-12-29T01:11:44;9.50;99.90
2054;DHT22;1032;52.542;13.440;2022-12-29T01:14:10;9.40;99.90
2054;DHT22;1032;52.542;13.440;2022-12-29T01:16:37;9.80;99.90
2054;DHT22;1032;52.542;13.440;2022-12-29T01:19:03;9.70;99.90
2054;DHT22;1032;52.542;13.440;2022-12-29T01:21:30;9.40;99.90
2054;DHT22;1032;52.542;13.440;2022-12-29T01:23:57;9.20;99.90
2054;DHT22;1032;52.542;13.440;2022-12-29T01:26:23;9.50;99.90
2054;DHT22;1032;52.542;13.440;2022-12-29T01:28:52;9.10;99.90
2054;DHT22;1032;52.542;13.440;2022-12-29T01:31:19;9.20;99.90
2054;DHT22;1032;52.542;13.440;2022-12-29T01:33:46;9.40;99.90
2054;DHT22;1032;52.542;13.440;2022-12-29T01:36:14;9.20;99.90
2054;DHT22;1032;52.542;13.440;2022-12-29T01:38:42;9.40;99.90
2054;DHT22;1032;52.542;13.440;2022-12-29T01:41:11;9.20;99.90
2054;DHT22;1032;52.542;13.440;2022-12-29T01:43:40;9.40;99.90
2054;DHT22;1032;52.542;13.440;2022-12-29T01:46:14;9.20;99.90
2054;DHT22;1032;52.542;13.440;2022-12-29T01:48:42;9.20;99.90
2054;DHT22;1032;52.542;13.440;2022-12-29T01:51:09;9.30;99.90
2054;DHT22;1032;52.542;13.440;2022-12-29T01:53:36;9.50;99.90
2054;DHT22;1032;52.542;13.440;2022-12-29T01:56:06;9.50;99.90
2054;DHT22;1032;52.542;13.440;2022-12-29T01:58:37;9.50;99.90
2054;DHT22;1032;52.542;13.440;2022-12-29T02:01:06;9.50;99.90
2054;DHT22;1032;52.542;13.440;2022-12-29T02:03:36;9.30;99.90
2054;DHT22;1032;52.542;13.440;2022-12-29T02:06:07;9.30;99.90
2054;DHT22;1032;52.542;13.440;2022-12-29T02:08:38;9.30;99.90
2054;DHT22;1032;52.542;13.440;2022-12-29T02:11:05;9.40;99.90
2054;DHT22;1032;52.542;13.440;2022-12-29T02:13:33;9.20;99.90
2054;DHT22;1032;52.542;13.440;2022-12-29T02:16:05;9.30;99.90
2054;DHT22;1032;52.542;13.440;2022-12-29T02:18:43;9.50;99.90
2054;DHT22;1032;52.542;13.440;2022-12-29T02:21:30;9.90;99.90
2054;DHT22;1032;52.542;13.440;2022-12-29T02:27:19;9.40;99.90
2054;DHT22;1032;52.542;13.440;2022-12-29T02:30:04;9.40;99.90
2054;DHT22;1032;52.542;13.440;2022-12-29T02:32:37;9.50;99.90
2054;DHT22;1032;52.542;13.440;2022-12-29T02:35:09;9.00;99.90
2054;DHT22;1032;52.542;13.440;2022-12-29T02:37:42;9.50;99.90
2054;DHT22;1032;52.542;13.440;2022-12-29T02:40:17;9.40;99.90
2054;DHT22;1032;52.542;13.440;2022-12-29T02:42:49;9.50;99.90
2054;DHT22;1032;52.542;13.440;2022-12-29T02:45:21;9.80;99.90
2054;DHT22;1032;52.542;13.440;2022-12-29T02:47:57;9.40;99.90
2054;DHT22;1032;52.542;13.440;2022-12-29T02:50:34;9.20;99.90
2054;DHT22;1032;52.542;13.440;2022-12-29T02:53:05;9.30;99.90
2054;DHT22;1032;52.542;13.440;2022-12-29T02:55:33;9.20;99.90
2054;DHT22;1032;52.542;13.440;2022-12-29T02:58:16;9.80;99.90
2054;DHT22;1032;52.542;13.440;2022-12-29T03:00:53;9.60;99.90
2054;DHT22;1032;52.542;13.440;2022-12-29T03:03:30;9.30;99.90
2054;DHT22;1032;52.542;13.440;2022-12-29T03:06:15;9.30;99.90
2054;DHT22;1032;52.542;13.440;2022-12-29T03:08:53;9.50;99.90
2054;DHT22;1032;52.542;13.440;2022-12-29T03:11:27;9.60;99.90
2054;DHT22;1032;52.542;13.440;2022-12-29T03:14:17;9.50;99.90
2054;DHT22;1032;52.542;13.440;2022-12-29T03:17:09;9.40;99.90
2054;DHT22;1032;52.542;13.440;2022-12-29T03:19:45;9.60;99.90
2054;DHT22;1032;52.542;13.440;2022-12-29T03:22:18;9.70;99.90
2054;DHT22;1032;52.542;13.440;2022-12-29T03:25:13;9.60;99.90
2054;DHT22;1032;52.542;13.440;2022-12-29T03:27:44;10.00;99.90
2054;DHT22;1032;52.542;13.440;2022-12-29T03:30:13;9.90;99.90
2054;DHT22;1032;52.542;13.440;2022-12-29T03:32:44;10.00;99.90
2054;DHT22;1032;52.542;13.440;2022-12-29T03:35:16;9.80;99.90
2054;DHT22;1032;52.542;13.440;2022-12-29T03:37:48;9.90;99.90
2054;DHT22;1032;52.542;13.440;2022-12-29T03:40:16;9.90;99.90
2054;DHT22;1032;52.542;13.440;2022-12-29T03:42:46;10.30;99.90
2054;DHT22;1032;52.542;13.440;2022-12-29T03:45:14;9.80;99.90
2054;DHT22;1032;52.542;13.440;2022-12-29T03:47:40;9.80;99.90
2054;DHT22;1032;52.542;13.440;2022-12-29T03:50:08;9.90;99.90
2054;DHT22;1032;52.542;13.440;2022-12-29T03:52:40;9.60;99.90
2054;DHT22;1032;52.542;13.440;2022-12-29T03:55:07;9.40;99.90
2054;DHT22;1032;52.542;13.440;2022-12-29T03:57:34;9.90;99.90
2054;DHT22;1032;52.542;13.440;2022-12-29T04:00:06;9.50;99.90
2054;DHT22;1032;52.542;13.440;2022-12-29T04:02:40;9.80;99.90
2054;DHT22;1032;52.542;13.440;2022-12-29T04:05:10;9.80;99.90
2054;DHT22;1032;52.542;13.440;2022-12-29T04:07:37;10.50;99.90
2054;DHT22;1032;52.542;13.440;2022-12-29T04:10:06;10.00;99.90
2054;DHT22;1032;52.542;13.440;2022-12-29T04:12:34;10.00;99.90
2054;DHT22;1032;52.542;13.440;2022-12-29T04:15:01;10.00;99.90
2054;DHT22;1032;52.542;13.440;2022-12-29T04:17:27;9.60;99.90
2054;DHT22;1032;52.542;13.440;2022-12-29T04:19:54;9.70;99.90
2054;DHT22;1032;52.542;13.440;2022-12-29T04:22:41;9.90;99.90
2054;DHT22;1032;52.542;13.440;2022-12-29T04:25:10;9.90;99.90
2054;DHT22;1032;52.542;13.440;2022-12-29T04:27:37;10.00;99.90
2054;DHT22;1032;52.542;13.440;2022-12-29T04:30:27;10.20;99.90
2054;DHT22;1032;52.542;13.440;2022-12-29T04:33:07;9.90;99.90
2054;DHT22;1032;52.542;13.440;2022-12-29T04:35:33;10.10;99.90
2054;DHT22;1032;52.542;13.440;2022-12-29T04:38:00;10.20;99.90
2054;DHT22;1032;52.542;13.440;2022-12-29T04:40:29;10.10;99.90
2054;DHT22;1032;52.542;13.440;2022-12-29T04:42:55;10.20;99.90
2054;DHT22;1032;52.542;13.440;2022-12-29T04:45:23;10.70;99.90
2054;DHT22;1032;52.542;13.440;2022-12-29T04:47:59;10.30;99.90
2054;DHT22;1032;52.542;13.440;2022-12-29T04:50:42;10.50;99.90
2054;DHT22;1032;52.542;13.440;2022-12-29T04:53:15;9.90;99.90
2054;DHT22;1032;52.542;13.440;2022-12-29T04:55:44;10.60;99.90
2054;DHT22;1032;52.542;13.440;2022-12-29T04:58:11;10.30;99.90
2054;DHT22;1032;52.542;13.440;2022-12-29T05:00:37;10.60;99.90
2054;DHT22;1032;52.542;13.440;2022-12-29T05:03:05;10.20;99.90
2054;DHT22;1032;52.542;13.440;2022-12-29T05:05:31;10.10;99.90
2054;DHT22;1032;52.542;13.440;2022-12-29T05:07:59;10.10;99.90
2054;DHT22;1032;52.542;13.440;2022-12-29T05:10:26;10.30;99.90
2054;DHT22;1032;52.542;13.440;2022-12-29T05:12:58;10.00;99.90
2054;DHT22;1032;52.542;13.440;2022-12-29T05:15:26;9.80;99.90
2054;DHT22;1032;52.542;13.440;2022-12-29T05:17:53;10.00;99.90
2054;DHT22;1032;52.542;13.440;2022-12-29T05:20:19;10.20;99.90
2054;DHT22;1032;52.542;13.440;2022-12-29T05:22:46;10.20;99.90
2054;DHT22;1032;52.542;13.440;2022-12-29T05:25:13;10.10;99.90
2054;DHT22;1032;52.542;13.440;2022-12-29T05:27:53;10.60;99.90
2054;DHT22;1032;52.542;13.440;2022-12-29T05:30:43;10.20;99.90
2054;DHT22;1032;52.542;13.440;2022-12-29T05:33:10;10.10;99.90
2054;DHT22;1032;52.542;13.440;2022-12-29T05:35:38;10.30;99.90
2054;DHT22;1032;52.542;13.440;2022-12-29T05:38:05;10.40;99.90
2054;DHT22;1032;52.542;13.440;2022-12-29T05:40:31;10.70;99.90
2054;DHT22;1032;52.542;13.440;2022-12-29T05:43:02;10.20;99.90
2054;DHT22;1032;52.542;13.440;2022-12-29T05:45:38;10.30;99.90
2054;DHT22;1032;52.542;13.440;2022-12-29T05:48:26;10.40;99.90
2054;DHT22;1032;52.542;13.440;2022-12-29T05:51:11;10.50;99.90
2054;DHT22;1032;52.542;13.440;2022-12-29T05:53:46;10.30;99.90
2054;DHT22;1032;52.542;13.440;2022-12-29T05:56:14;10.20;99.90
2054;DHT22;1032;52.542;13.440;2022-12-29T05:58:41;10.60;99.90
2054;DHT22;1032;52.542;13.440;2022-12-29T06:01:08;10.60;99.90
2054;DHT22;1032;52.542;13.440;2022-12-29T06:03:36;11.00;99.90
2054;DHT22;1032;52.542;13.440;2022-12-29T06:06:03;10.70;99.90
2054;DHT22;1032;52.542;13.440;2022-12-29T06:08:29;10.50;99.90
2054;DHT22;1032;52.542;13.440;2022-12-29T06:10:56;11.10;99.90
2054;DHT22;1032;52.542;13.440;2022-12-29T06:13:23;10.40;99.90
2054;DHT22;1032;52.542;13.440;2022-12-29T06:15:50;10.50;99.90
2054;DHT22;1032;52.542;13.440;2022-12-29T06:18:18;10.80;99.90
2054;DHT22;1032;52.542;13.440;2022-12-29T06:20:46;10.70;99.90
2054;DHT22;1032;52.542;13.440;2022-12-29T06:23:15;10.80;99.90
2054;DHT22;1032;52.542;13.440;2022-12-29T06:25:43;10.50;99.90
2054;DHT22;1032;52.542;13.440;2022-12-29T06:28:11;10.70;99.90
2054;DHT22;1032;52.542;13.440;2022-12-29T06:30:38;10.70;99.90
2054;DHT22;1032;52.542;13.440;2022-12-29T06:33:05;10.80;99.90
2054;DHT22;1032;52.542;13.440;2022-12-29T06:35:33;10.20;99.90
2054;DHT22;1032;52.542;13.440;2022-12-29T06:38:01;10.80;99.90
2054;DHT22;1032;52.542;13.440;2022-12-29T06:40:28;10.80;99.90
2054;DHT22;1032;52.542;13.440;2022-12-29T06:43:14;11.30;99.90
2054;DHT22;1032;52.542;13.440;2022-12-29T06:46:19;10.70;99.90
2054;DHT22;1032;52.542;13.440;2022-12-29T06:48:45;10.90;99.90
2054;DHT22;1032;52.542;13.440;2022-12-29T06:51:12;10.90;99.90
2054;DHT22;1032;52.542;13.440;2022-12-29T06:53:40;11.10;99.90
2054;DHT22;1032;52.542;13.440;2022-12-29T06:56:07;10.70;99.90
2054;DHT22;1032;52.542;13.440;2022-12-29T06:58:33;11.40;99.90
2054;DHT22;1032;52.542;13.440;2022-12-29T07:01:00;10.90;99.90
2054;DHT22;1032;52.542;13.440;2022-12-29T07:03:26;11.00;99.90
2054;DHT22;1032;52.542;13.440;2022-12-29T07:05:53;11.20;99.90
2054;DHT22;1032;52.542;13.440;2022-12-29T07:08:20;10.70;99.90
2054;DHT22;1032;52.542;13.440;2022-12-29T07:10:48;10.80;99.90
2054;DHT22;1032;52.542;13.440;2022-12-29T07:13:15;10.70;99.90
2054;DHT22;1032;52.542;13.440;2022-12-29T07:15:41;10.80;99.90
2054;DHT22;1032;52.542;13.440;2022-12-29T07:18:08;10.80;99.90
2054;DHT22;1032;52.542;13.440;2022-12-29T07:20:34;10.20;99.90
2054;DHT22;1032;52.542;13.440;2022-12-29T07:23:02;10.90;99.90
2054;DHT22;1032;52.542;13.440;2022-12-29T07:25:29;10.60;99.90
2054;DHT22;1032;52.542;13.440;2022-12-29T07:27:57;10.80;99.90
2054;DHT22;1032;52.542;13.440;2022-12-29T07:30:23;10.20;99.90
2054;DHT22;1032;52.542;13.440;2022-12-29T07:32:50;10.60;99.90
2054;DHT22;1032;52.542;13.440;2022-12-29T07:35:17;10.70;99.90
2054;DHT22;1032;52.542;13.440;2022-12-29T07:37:43;11.10;99.90
2054;DHT22;1032;52.542;13.440;2022-12-29T07:40:11;10.70;99.90
2054;DHT22;1032;52.542;13.440;2022-12-29T07:42:38;10.90;99.90
2054;DHT22;1032;52.542;13.440;2022-12-29T07:45:09;10.70;99.90
2054;DHT22;1032;52.542;13.440;2022-12-29T07:48:02;11.10;99.90
2054;DHT22;1032;52.542;13.440;2022-12-29T07:50:28;10.70;99.90
2054;DHT22;1032;52.542;13.440;2022-12-29T07:52:55;10.90;99.90
2054;DHT22;1032;52.542;13.440;2022-12-29T07:55:22;10.60;99.90
2054;DHT22;1032;52.542;13.440;2022-12-29T07:57:48;11.00;99.90
2054;DHT22;1032;52.542;13.440;2022-12-29T08:00:16;10.80;99.90
2054;DHT22;1032;52.542;13.440;2022-12-29T08:02:43;10.90;99.90
2054;DHT22;1032;52.542;13.440;2022-12-29T08:05:10;10.80;99.90
2054;DHT22;1032;52.542;13.440;2022-12-29T08:07:36;11.00;99.90
2054;DHT22;1032;52.542;13.440;2022-12-29T08:10:04;10.80;99.90
2054;DHT22;1032;52.542;13.440;2022-12-29T08:12:30;11.00;99.90
2054;DHT22;1032;52.542;13.440;2022-12-29T08:14:57;10.80;99.90
2054;DHT22;1032;52.542;13.440;2022-12-29T08:17:25;11.00;99.90
2054;DHT22;1032;52.542;13.440;2022-12-29T08:19:51;11.10;99.90
2054;DHT22;1032;52.542;13.440;2022-12-29T08:22:18;11.20;99.90
2054;DHT22;1032;52.542;13.440;2022-12-29T08:24:45;11.10;99.90
2054;DHT22;1032;52.542;13.440;2022-12-29T08:27:11;11.40;99.90
2054;DHT22;1032;52.542;13.440;2022-12-29T08:29:38;11.10;99.90
2054;DHT22;1032;52.542;13.440;2022-12-29T08:32:04;11.40;99.90
2054;DHT22;1032;52.542;13.440;2022-12-29T08:34:33;11.20;99.90
2054;DHT22;1032;52.542;13.440;2022-12-29T08:36:59;11.30;99.90
2054;DHT22;1032;52.542;13.440;2022-12-29T08:39:26;11.20;99.90
2054;DHT22;1032;52.542;13.440;2022-12-29T08:41:54;11.20;99.90
2054;DHT22;1032;52.542;13.440;2022-12-29T08:44:21;11.20;99.90
2054;DHT22;1032;52.542;13.440;2022-12-29T08:46:47;11.30;99.90
2054;DHT22;1032;52.542;13.440;2022-12-29T08:49:14;10.50;99.90
2054;DHT22;1032;52.542;13.440;2022-12-29T08:51:42;11.20;99.90
2054;DHT22;1032;52.542;13.440;2022-12-29T08:54:09;10.90;99.90
2054;DHT22;1032;52.542;13.440;2022-12-29T08:56:35;10.80;99.90
2054;DHT22;1032;52.542;13.440;2022-12-29T08:59:03;11.40;99.90
2054;DHT22;1032;52.542;13.440;2022-12-29T09:01:30;11.50;99.90
2054;DHT22;1032;52.542;13.440;2022-12-29T09:03:59;11.20;99.90
2054;DHT22;1032;52.542;13.440;2022-12-29T09:06:25;11.30;99.90
2054;DHT22;1032;52.542;13.440;2022-12-29T09:08:55;11.10;99.90
2054;DHT22;1032;52.542;13.440;2022-12-29T09:11:23;11.00;99.90
2054;DHT22;1032;52.542;13.440;2022-12-29T09:13:50;11.50;99.90
2054;DHT22;1032;52.542;13.440;2022-12-29T09:16:17;11.50;99.90
2054;DHT22;1032;52.542;13.440;2022-12-29T09:18:44;11.40;99.90
2054;DHT22;1032;52.542;13.440;2022-12-29T09:21:11;11.30;99.90
2054;DHT22;1032;52.542;13.440;2022-12-29T09:23:38;11.50;99.90
2054;DHT22;1032;52.542;13.440;2022-12-29T09:26:07;11.80;99.90
2054;DHT22;1032;52.542;13.440;2022-12-29T09:28:34;11.40;99.90
2054;DHT22;1032;52.542;13.440;2022-12-29T09:31:02;11.30;99.90
2054;DHT22;1032;52.542;13.440;2022-12-29T09:33:29;11.60;99.90
2054;DHT22;1032;52.542;13.440;2022-12-29T09:35:58;11.50;99.90
2054;DHT22;1032;52.542;13.440;2022-12-29T09:38:25;11.60;99.90
2054;DHT22;1032;52.542;13.440;2022-12-29T09:40:54;11.70;99.90
2054;DHT22;1032;52.542;13.440;2022-12-29T09:43:41;11.60;99.90
2054;DHT22;1032;52.542;13.440;2022-12-29T09:46:18;11.50;99.90
2054;DHT22;1032;52.542;13.440;2022-12-29T09:48:50;11.60;99.90
2054;DHT22;1032;52.542;13.440;2022-12-29T09:51:22;11.80;99.90
2054;DHT22;1032;52.542;13.440;2022-12-29T09:53:52;11.80;99.90
2054;DHT22;1032;52.542;13.440;2022-12-29T09:56:22;12.00;99.90
2054;DHT22;1032;52.542;13.440;2022-12-29T09:58:54;11.80;99.90
2054;DHT22;1032;52.542;13.440;2022-12-29T10:01:29;11.90;99.90
2054;DHT22;1032;52.542;13.440;2022-12-29T10:03:58;11.70;99.90
2054;DHT22;1032;52.542;13.440;2022-12-29T10:06:33;11.90;99.90
2054;DHT22;1032;52.542;13.440;2022-12-29T10:09:10;12.10;99.90
2054;DHT22;1032;52.542;13.440;2022-12-29T10:11:58;11.90;99.90
2054;DHT22;1032;52.542;13.440;2022-12-29T10:14:40;12.10;99.90
2054;DHT22;1032;52.542;13.440;2022-12-29T10:17:19;11.80;99.90
2054;DHT22;1032;52.542;13.440;2022-12-29T10:19:57;12.00;99.90
2054;DHT22;1032;52.542;13.440;2022-12-29T10:22:38;11.50;99.90
2054;DHT22;1032;52.542;13.440;2022-12-29T10:25:12;12.10;99.90
2054;DHT22;1032;52.542;13.440;2022-12-29T10:27:40;12.30;99.90
2054;DHT22;1032;52.542;13.440;2022-12-29T10:30:11;11.90;99.90
2054;DHT22;1032;52.542;13.440;2022-12-29T10:32:41;12.00;99.90
2054;DHT22;1032;52.542;13.440;2022-12-29T10:35:13;12.40;99.90
2054;DHT22;1032;52.542;13.440;2022-12-29T10:37:45;12.10;99.90
2054;DHT22;1032;52.542;13.440;2022-12-29T10:40:19;11.90;99.90
2054;DHT22;1032;52.542;13.440;2022-12-29T10:42:50;12.00;99.90
2054;DHT22;1032;52.542;13.440;2022-12-29T10:45:22;12.10;99.90
2054;DHT22;1032;52.542;13.440;2022-12-29T10:47:55;12.50;99.90
2054;DHT22;1032;52.542;13.440;2022-12-29T10:50:24;12.60;99.90
2054;DHT22;1032;52.542;13.440;2022-12-29T10:52:52;12.70;99.90
2054;DHT22;1032;52.542;13.440;2022-12-29T10:55:23;12.50;99.90
2054;DHT22;1032;52.542;13.440;2022-12-29T10:57:54;12.60;99.90
2054;DHT22;1032;52.542;13.440;2022-12-29T11:00:24;12.70;99.90
2054;DHT22;1032;52.542;13.440;2022-12-29T11:05:48;12.90;99.90
2054;DHT22;1032;52.542;13.440;2022-12-29T11:08:18;13.10;99.90
2054;DHT22;1032;52.542;13.440;2022-12-29T11:10:46;12.80;99.90
2054;DHT22;1032;52.542;13.440;2022-12-29T11:13:26;12.80;99.90
2054;DHT22;1032;52.542;13.440;2022-12-29T11:15:54;12.60;99.90
2054;DHT22;1032;52.542;13.440;2022-12-29T11:18:23;12.80;99.90
2054;DHT22;1032;52.542;13.440;2022-12-29T11:20:51;12.80;99.90
2054;DHT22;1032;52.542;13.440;2022-12-29T11:23:34;12.90;99.90
2054;DHT22;1032;52.542;13.440;2022-12-29T11:26:15;12.90;99.90
2054;DHT22;1032;52.542;13.440;2022-12-29T11:28:43;13.10;99.90
2054;DHT22;1032;52.542;13.440;2022-12-29T11:31:15;12.90;99.90
2054;DHT22;1032;52.542;13.440;2022-12-29T11:33:42;12.90;99.90
2054;DHT22;1032;52.542;13.440;2022-12-29T11:36:13;12.90;99.90
2054;DHT22;1032;52.542;13.440;2022-12-29T11:38:45;13.10;99.90
2054;DHT22;1032;52.542;13.440;2022-12-29T11:41:19;13.10;99.90
2054;DHT22;1032;52.542;13.440;2022-12-29T11:43:47;13.20;99.90
2054;DHT22;1032;52.542;13.440;2022-12-29T11:46:17;12.90;99.90
2054;DHT22;1032;52.542;13.440;2022-12-29T11:48:46;12.90;99.90
2054;DHT22;1032;52.542;13.440;2022-12-29T11:51:21;12.40;99.90
2054;DHT22;1032;52.542;13.440;2022-12-29T11:53:50;13.00;99.90
2054;DHT22;1032;52.542;13.440;2022-12-29T11:56:21;13.00;99.90
2054;DHT22;1032;52.542;13.440;2022-12-29T11:58:50;12.80;99.90
2054;DHT22;1032;52.542;13.440;2022-12-29T12:01:24;12.90;99.90
2054;DHT22;1032;52.542;13.440;2022-12-29T12:03:59;13.10;99.90
2054;DHT22;1032;52.542;13.440;2022-12-29T12:06:28;12.80;99.90
2054;DHT22;1032;52.542;13.440;2022-12-29T12:08:59;12.80;99.90
2054;DHT22;1032;52.542;13.440;2022-12-29T12:11:31;13.00;99.90
2054;DHT22;1032;52.542;13.440;2022-12-29T12:14:04;12.70;99.90
2054;DHT22;1032;52.542;13.440;2022-12-29T12:16:56;12.50;99.90
2054;DHT22;1032;52.542;13.440;2022-12-29T12:19:31;12.50;99.90
2054;DHT22;1032;52.542;13.440;2022-12-29T12:22:07;12.70;99.90
2054;DHT22;1032;52.542;13.440;2022-12-29T12:24:41;12.20;99.90
2054;DHT22;1032;52.542;13.440;2022-12-29T12:27:13;12.50;99.90
2054;DHT22;1032;52.542;13.440;2022-12-29T12:29:47;12.40;99.90
2054;DHT22;1032;52.542;13.440;2022-12-29T12:32:21;12.30;99.90
2054;DHT22;1032;52.542;13.440;2022-12-29T12:34:49;12.60;99.90
2054;DHT22;1032;52.542;13.440;2022-12-29T12:37:47;12.50;99.90
2054;DHT22;1032;52.542;13.440;2022-12-29T12:40:52;12.20;99.90
2054;DHT22;1032;52.542;13.440;2022-12-29T12:43:37;12.30;99.90
2054;DHT22;1032;52.542;13.440;2022-12-29T12:46:16;12.20;99.90
2054;DHT22;1032;52.542;13.440;2022-12-29T12:49:02;12.50;99.90
2054;DHT22;1032;52.542;13.440;2022-12-29T12:51:35;12.10;99.90
2054;DHT22;1032;52.542;13.440;2022-12-29T12:54:17;12.30;99.90
2054;DHT22;1032;52.542;13.440;2022-12-29T12:56:56;12.20;99.90
2054;DHT22;1032;52.542;13.440;2022-12-29T12:59:36;12.50;99.90
2054;DHT22;1032;52.542;13.440;2022-12-29T13:02:16;12.60;99.90
2054;DHT22;1032;52.542;13.440;2022-12-29T13:07:47;12.10;99.90
2054;DHT22;1032;52.542;13.440;2022-12-29T13:10:27;11.90;99.90
2054;DHT22;1032;52.542;13.440;2022-12-29T13:13:03;12.00;99.90
2054;DHT22;1032;52.542;13.440;2022-12-29T13:15:42;12.00;99.90
2054;DHT22;1032;52.542;13.440;2022-12-29T13:18:22;11.90;99.90
2054;DHT22;1032;52.542;13.440;2022-12-29T13:20:58;11.90;99.90
2054;DHT22;1032;52.542;13.440;2022-12-29T13:23:32;12.20;99.90
2054;DHT22;1032;52.542;13.440;2022-12-29T13:26:06;11.80;99.90
2054;DHT22;1032;52.542;13.440;2022-12-29T13:28:45;11.80;99.90
2054;DHT22;1032;52.542;13.440;2022-12-29T13:31:17;11.70;99.90
2054;DHT22;1032;52.542;13.440;2022-12-29T13:33:51;11.50;99.90
2054;DHT22;1032;52.542;13.440;2022-12-29T13:36:25;11.90;99.90
2054;DHT22;1032;52.542;13.440;2022-12-29T13:39:02;12.00;99.90
2054;DHT22;1032;52.542;13.440;2022-12-29T13:41:33;11.50;99.90
2054;DHT22;1032;52.542;13.440;2022-12-29T13:44:03;11.70;99.90
2054;DHT22;1032;52.542;13.440;2022-12-29T13:46:34;11.50;99.90
2054;DHT22;1032;52.542;13.440;2022-12-29T13:49:06;11.50;99.90
2054;DHT22;1032;52.542;13.440;2022-12-29T13:51:37;11.60;99.90
2054;DHT22;1032;52.542;13.440;2022-12-29T13:54:13;11.40;99.90
2054;DHT22;1032;52.542;13.440;2022-12-29T13:56:48;12.00;99.90
2054;DHT22;1032;52.542;13.440;2022-12-29T13:59:21;11.50;99.90
2054;DHT22;1032;52.542;13.440;2022-12-29T14:01:55;11.20;99.90
2054;DHT22;1032;52.542;13.440;2022-12-29T14:04:25;11.60;99.90
2054;DHT22;1032;52.542;13.440;2022-12-29T14:07:04;11.50;99.90
2054;DHT22;1032;52.542;13.440;2022-12-29T14:09:49;11.90;99.90
2054;DHT22;1032;52.542;13.440;2022-12-29T14:12:32;11.50;99.90
2054;DHT22;1032;52.542;13.440;2022-12-29T14:15:06;11.40;99.90
2054;DHT22;1032;52.542;13.440;2022-12-29T14:17:44;11.40;99.90
2054;DHT22;1032;52.542;13.440;2022-12-29T14:20:19;11.40;99.90
2054;DHT22;1032;52.542;13.440;2022-12-29T14:22:58;11.60;99.90
2054;DHT22;1032;52.542;13.440;2022-12-29T14:25:58;11.70;99.90
2054;DHT22;1032;52.542;13.440;2022-12-29T14:28:26;11.50;99.90
2054;DHT22;1032;52.542;13.440;2022-12-29T14:30:55;11.40;99.90
2054;DHT22;1032;52.542;13.440;2022-12-29T14:33:22;11.60;99.90
2054;DHT22;1032;52.542;13.440;2022-12-29T14:35:52;11.30;99.90
2054;DHT22;1032;52.542;13.440;2022-12-29T14:38:23;11.30;99.90
2054;DHT22;1032;52.542;13.440;2022-12-29T14:40:50;11.40;99.90
2054;DHT22;1032;52.542;13.440;2022-12-29T14:43:24;11.40;99.90
2054;DHT22;1032;52.542;13.440;2022-12-29T14:45:57;11.00;99.90
2054;DHT22;1032;52.542;13.440;2022-12-29T14:48:35;11.20;99.90
2054;DHT22;1032;52.542;13.440;2022-12-29T14:51:17;11.20;99.90
2054;DHT22;1032;52.542;13.440;2022-12-29T14:53:48;11.30;99.90
2054;DHT22;1032;52.542;13.440;2022-12-29T14:56:16;11.10;99.90
2054;DHT22;1032;52.542;13.440;2022-12-29T14:58:50;11.40;99.90
2054;DHT22;1032;52.542;13.440;2022-12-29T15:01:22;11.10;99.90
2054;DHT22;1032;52.542;13.440;2022-12-29T15:03:52;11.10;99.90
2054;DHT22;1032;52.542;13.440;2022-12-29T15:06:22;11.40;99.90
2054;DHT22;1032;52.542;13.440;2022-12-29T15:08:55;10.90;99.90
2054;DHT22;1032;52.542;13.440;2022-12-29T15:11:41;11.30;99.90
2054;DHT22;1032;52.542;13.440;2022-12-29T15:14:33;11.60;99.90
2054;DHT22;1032;52.542;13.440;2022-12-29T15:17:02;11.40;99.90
2054;DHT22;1032;52.542;13.440;2022-12-29T15:19:34;11.20;99.90
2054;DHT22;1032;52.542;13.440;2022-12-29T15:22:02;11.20;99.90
2054;DHT22;1032;52.542;13.440;2022-12-29T15:24:30;11.40;99.90
2054;DHT22;1032;52.542;13.440;2022-12-29T15:27:03;11.70;99.90
2054;DHT22;1032;52.542;13.440;2022-12-29T15:29:32;11.60;99.90
2054;DHT22;1032;52.542;13.440;2022-12-29T15:32:00;11.20;99.90
2054;DHT22;1032;52.542;13.440;2022-12-29T15:34:30;11.50;99.90
2054;DHT22;1032;52.542;13.440;2022-12-29T15:36:57;11.30;99.90
2054;DHT22;1032;52.542;13.440;2022-12-29T15:39:29;11.40;99.90
2054;DHT22;1032;52.542;13.440;2022-12-29T15:41:59;11.70;99.90
2054;DHT22;1032;52.542;13.440;2022-12-29T15:44:34;11.30;99.90
2054;DHT22;1032;52.542;13.440;2022-12-29T15:47:02;10.90;99.90
2054;DHT22;1032;52.542;13.440;2022-12-29T15:49:29;11.00;99.90
2054;DHT22;1032;52.542;13.440;2022-12-29T15:51:56;10.80;99.90
2054;DHT22;1032;52.542;13.440;2022-12-29T15:54:23;10.70;99.90
2054;DHT22;1032;52.542;13.440;2022-12-29T15:56:50;11.20;99.90
2054;DHT22;1032;52.542;13.440;2022-12-29T15:59:26;11.10;99.90
2054;DHT22;1032;52.542;13.440;2022-12-29T16:01:53;10.80;99.90
2054;DHT22;1032;52.542;13.440;2022-12-29T16:04:21;11.00;99.90
2054;DHT22;1032;52.542;13.440;2022-12-29T16:06:55;10.80;99.90
2054;DHT22;1032;52.542;13.440;2022-12-29T16:09:30;10.90;99.90
2054;DHT22;1032;52.542;13.440;2022-12-29T16:11:59;11.00;99.90
2054;DHT22;1032;52.542;13.440;2022-12-29T16:14:30;10.30;99.90
2054;DHT22;1032;52.542;13.440;2022-12-29T16:17:00;11.10;99.90
2054;DHT22;1032;52.542;13.440;2022-12-29T16:19:32;10.70;99.90
2054;DHT22;1032;52.542;13.440;2022-12-29T16:22:01;10.80;99.90
2054;DHT22;1032;52.542;13.440;2022-12-29T16:24:31;11.10;99.90
2054;DHT22;1032;52.542;13.440;2022-12-29T16:27:02;10.70;99.90
2054;DHT22;1032;52.542;13.440;2022-12-29T16:29:30;10.80;99.90